sensor_id;sensor_type;location;lat;lon;timestamp;pressure;altitude;pressure_sealevel;temperature;humidity
75447;BME280;64024;55.820;37.574;2023-03-14T00:02:10;98472.81;;;15.24;42.92
75447;BME280;64024;55.820;37.574;2023-03-14T00:04:37;98469.31;;;15.24;42.74
75447;BME280;64024;55.820;37.574;2023-03-14T00:07:03;98460.50;;;15.23;42.93
75447;BME280;64024;55.820;37.574;2023-03-14T00:09:29;98454.06;;;15.24;42.72
75447;BME280;64024;55.820;37.574;2023-03-14T00:11:56;98455.69;;;15.25;42.79
75447;BME280;64024;55.820;37.574;2023-03-14T00:14:22;98441.25;;;15.26;43.19
75447;BME280;64024;55.820;37.574;2023-03-14T00:16:48;98449.81;;;15.28;43.21
75447;BME280;64024;55.820;37.574;2023-03-14T00:19:15;98433.00;;;15.38;42.99
75447;BME280;64024;55.820;37.574;2023-03-14T00:21:41;98423.63;;;15.35;42.98
75447;BME280;64024;55.820;37.574;2023-03-14T00:24:08;98415.03;;;15.33;42.77
75447;BME280;64024;55.820;37.574;2023-03-14T00:26:34;98418.25;;;15.30;42.86
75447;BME280;64024;55.820;37.574;2023-03-14T00:28:59;98413.13;;;15.29;42.70
75447;BME280;64024;55.820;37.574;2023-03-14T00:31:25;98411.53;;;15.28;42.88
75447;BME280;64024;55.820;37.574;2023-03-14T00:33:52;98406.44;;;15.26;42.91
75447;BME280;64024;55.820;37.574;2023-03-14T00:36:19;98402.94;;;15.26;42.37
75447;BME280;64024;55.820;37.574;2023-03-14T00:38:50;98394.91;;;15.26;42.86
75447;BME280;64024;55.820;37.574;2023-03-14T00:41:21;98396.78;;;15.25;42.37
75447;BME280;64024;55.820;37.574;2023-03-14T00:43:51;98407.75;;;15.24;42.27
75447;BME280;64024;55.820;37.574;2023-03-14T00:46:17;98413.09;;;15.19;41.38
75447;BME280;64024;55.820;37.574;2023-03-14T00:48:44;98415.97;;;15.12;40.60
75447;BME280;64024;55.820;37.574;2023-03-14T00:51:11;98395.34;;;15.07;41.29
75447;BME280;64024;55.820;37.574;2023-03-14T00:53:39;98402.81;;;15.05;41.32
75447;BME280;64024;55.820;37.574;2023-03-14T00:56:07;98383.53;;;15.03;41.64
75447;BME280;64024;55.820;37.574;2023-03-14T00:58:35;98376.59;;;15.02;41.39
75447;BME280;64024;55.820;37.574;2023-03-14T01:01:12;98376.59;;;15.02;41.59
75447;BME280;64024;55.820;37.574;2023-03-14T01:03:38;98363.44;;;15.01;41.44
75447;BME280;64024;55.820;37.574;2023-03-14T01:06:10;98374.41;;;14.99;41.42
75447;BME280;64024;55.820;37.574;2023-03-14T01:08:36;98363.72;;;14.99;42.06
75447;BME280;64024;55.820;37.574;2023-03-14T01:11:11;98368.25;;;14.99;41.66
75447;BME280;64024;55.820;37.574;2023-03-14T01:13:38;98370.94;;;14.99;41.79
75447;BME280;64024;55.820;37.574;2023-03-14T01:16:06;98370.38;;;14.97;42.25
75447;BME280;64024;55.820;37.574;2023-03-14T01:18:34;98367.69;;;14.97;41.79
75447;BME280;64024;55.820;37.574;2023-03-14T01:21:08;98366.91;;;14.96;41.80
75447;BME280;64024;55.820;37.574;2023-03-14T01:23:35;98361.56;;;14.96;41.91
75447;BME280;64024;55.820;37.574;2023-03-14T01:26:01;98339.34;;;14.96;42.21
75447;BME280;64024;55.820;37.574;2023-03-14T01:28:27;98327.03;;;14.95;42.34
75447;BME280;64024;55.820;37.574;2023-03-14T01:30:53;98315.53;;;14.94;42.05
75447;BME280;64024;55.820;37.574;2023-03-14T01:33:19;98316.34;;;14.95;42.08
75447;BME280;64024;55.820;37.574;2023-03-14T01:35:45;98307.50;;;14.94;42.37
75447;BME280;64024;55.820;37.574;2023-03-14T01:38:11;98292.53;;;14.93;42.21
75447;BME280;64024;55.820;37.574;2023-03-14T01:40:44;98293.34;;;14.94;42.16
75447;BME280;64024;55.820;37.574;2023-03-14T01:43:16;98300.56;;;14.93;42.47
75447;BME280;64024;55.820;37.574;2023-03-14T01:48:37;98282.88;;;14.92;42.07
75447;BME280;64024;55.820;37.574;2023-03-14T01:51:07;98278.59;;;14.91;42.35
75447;BME280;64024;55.820;37.574;2023-03-14T01:53:36;98275.13;;;14.90;42.64
75447;BME280;64024;55.820;37.574;2023-03-14T01:56:05;98286.09;;;14.89;42.28
75447;BME280;64024;55.820;37.574;2023-03-14T01:58:33;98281.53;;;14.89;42.57
75447;BME280;64024;55.820;37.574;2023-03-14T02:01:03;98273.50;;;14.89;42.74
75447;BME280;64024;55.820;37.574;2023-03-14T02:03:30;98273.75;;;14.88;42.80
75447;BME280;64024;55.820;37.574;2023-03-14T02:06:05;98255.03;;;14.88;42.72
75447;BME280;64024;55.820;37.574;2023-03-14T02:08:33;98259.56;;;14.87;42.45
75447;BME280;64024;55.820;37.574;2023-03-14T02:11:01;98261.44;;;14.87;42.46
75447;BME280;64024;55.820;37.574;2023-03-14T02:13:27;98249.94;;;14.86;42.71
75447;BME280;64024;55.820;37.574;2023-03-14T02:15:52;98247.28;;;14.86;42.39
75447;BME280;64024;55.820;37.574;2023-03-14T02:18:19;98240.31;;;14.85;42.42
75447;BME280;64024;55.820;37.574;2023-03-14T02:21:05;98231.22;;;14.86;42.73
75447;BME280;64024;55.820;37.574;2023-03-14T02:26:24;98222.41;;;14.86;42.89
75447;BME280;64024;55.820;37.574;2023-03-14T02:28:53;98204.75;;;14.85;42.43
75447;BME280;64024;55.820;37.574;2023-03-14T02:31:20;98209.25;;;14.84;42.44
75447;BME280;64024;55.820;37.574;2023-03-14T02:33:48;98192.41;;;14.84;42.59
75447;BME280;64024;55.820;37.574;2023-03-14T02:36:14;98189.22;;;14.82;42.38
75447;BME280;64024;55.820;37.574;2023-03-14T02:39:15;98177.44;;;14.83;43.06
75447;BME280;64024;55.820;37.574;2023-03-14T02:41:39;98185.19;;;14.84;42.74
75447;BME280;64024;55.820;37.574;2023-03-14T02:44:05;98183.84;;;14.82;42.72
75447;BME280;64024;55.820;37.574;2023-03-14T02:46:31;98173.16;;;14.82;42.94
75447;BME280;64024;55.820;37.574;2023-03-14T02:49:17;98164.06;;;14.83;42.68
75447;BME280;64024;55.820;37.574;2023-03-14T02:51:45;98159.78;;;14.82;42.75
75447;BME280;64024;55.820;37.574;2023-03-14T02:54:11;98166.22;;;14.81;42.87
75447;BME280;64024;55.820;37.574;2023-03-14T02:56:38;98171.56;;;14.81;43.05
75447;BME280;64024;55.820;37.574;2023-03-14T02:59:05;98164.56;;;14.80;43.31
75447;BME280;64024;55.820;37.574;2023-03-14T03:01:33;98186.78;;;14.80;42.50
75447;BME280;64024;55.820;37.574;2023-03-14T03:03:59;98180.63;;;14.80;42.90
75447;BME280;64024;55.820;37.574;2023-03-14T03:06:25;98180.63;;;14.80;43.11
75447;BME280;64024;55.820;37.574;2023-03-14T03:08:52;98182.50;;;14.79;43.07
75447;BME280;64024;55.820;37.574;2023-03-14T03:11:18;98184.09;;;14.80;42.94
75447;BME280;64024;55.820;37.574;2023-03-14T03:13:44;98170.72;;;14.80;43.51
75447;BME280;64024;55.820;37.574;2023-03-14T03:16:09;98176.91;;;14.81;43.31
75447;BME280;64024;55.820;37.574;2023-03-14T03:18:35;98161.66;;;14.81;43.48
75447;BME280;64024;55.820;37.574;2023-03-14T03:21:03;98160.59;;;14.82;43.33
75447;BME280;64024;55.820;37.574;2023-03-14T03:23:30;98153.38;;;14.83;43.75
75447;BME280;64024;55.820;37.574;2023-03-14T03:25:55;98148.00;;;14.83;43.89
75447;BME280;64024;55.820;37.574;2023-03-14T03:28:22;98134.63;;;14.83;43.76
75447;BME280;64024;55.820;37.574;2023-03-14T03:30:48;98125.53;;;14.84;44.56
75447;BME280;64024;55.820;37.574;2023-03-14T03:33:14;98114.84;;;14.84;44.52
75447;BME280;64024;55.820;37.574;2023-03-14T03:35:45;98123.66;;;14.84;44.87
75447;BME280;64024;55.820;37.574;2023-03-14T03:38:12;98087.06;;;14.85;44.49
75447;BME280;64024;55.820;37.574;2023-03-14T03:40:38;98095.06;;;14.85;44.63
75447;BME280;64024;55.820;37.574;2023-03-14T03:43:04;98103.91;;;14.85;44.54
75447;BME280;64024;55.820;37.574;2023-03-14T03:45:31;98084.38;;;14.85;44.33
75447;BME280;64024;55.820;37.574;2023-03-14T03:47:56;98088.66;;;14.86;44.22
75447;BME280;64024;55.820;37.574;2023-03-14T03:50:23;98078.19;;;14.84;44.63
75447;BME280;64024;55.820;37.574;2023-03-14T03:52:49;98087.84;;;14.85;44.30
75447;BME280;64024;55.820;37.574;2023-03-14T03:55:14;98081.41;;;14.86;44.72
75447;BME280;64024;55.820;37.574;2023-03-14T03:57:40;98068.84;;;14.87;44.65
75447;BME280;64024;55.820;37.574;2023-03-14T04:00:06;98075.00;;;14.87;44.81
75447;BME280;64024;55.820;37.574;2023-03-14T04:02:34;98089.19;;;14.88;44.46
75447;BME280;64024;55.820;37.574;2023-03-14T04:05:01;98083.81;;;14.88;44.92
75447;BME280;64024;55.820;37.574;2023-03-14T04:07:27;98061.63;;;14.87;44.91
75447;BME280;64024;55.820;37.574;2023-03-14T04:09:53;98066.97;;;14.87;44.77
75447;BME280;64024;55.820;37.574;2023-03-14T04:12:18;98066.97;;;14.87;44.82
75447;BME280;64024;55.820;37.574;2023-03-14T04:14:45;98065.91;;;14.88;44.87
75447;BME280;64024;55.820;37.574;2023-03-14T04:17:11;98071.25;;;14.88;44.61
75447;BME280;64024;55.820;37.574;2023-03-14T04:19:37;98062.97;;;14.90;45.04
75447;BME280;64024;55.820;37.574;2023-03-14T04:22:04;98065.66;;;14.90;44.91
75447;BME280;64024;55.820;37.574;2023-03-14T04:24:30;98049.31;;;14.91;44.62
75447;BME280;64024;55.820;37.574;2023-03-14T04:26:55;98038.63;;;14.91;44.57
75447;BME280;64024;55.820;37.574;2023-03-14T04:29:21;98053.88;;;14.91;44.74
75447;BME280;64024;55.820;37.574;2023-03-14T04:31:47;98050.94;;;14.92;44.73
75447;BME280;64024;55.820;37.574;2023-03-14T04:34:13;98045.56;;;14.92;44.77
75447;BME280;64024;55.820;37.574;2023-03-14T04:36:39;98047.44;;;14.92;44.53
75447;BME280;64024;55.820;37.574;2023-03-14T04:39:05;98029.28;;;14.94;45.11
75447;BME280;64024;55.820;37.574;2023-03-14T04:41:32;98034.63;;;14.94;44.69
75447;BME280;64024;55.820;37.574;2023-03-14T04:43:58;98033.28;;;14.97;45.03
75447;BME280;64024;55.820;37.574;2023-03-14T04:46:24;98022.56;;;14.97;45.37
75447;BME280;64024;55.820;37.574;2023-03-14T04:48:50;97997.44;;;14.98;44.81
75447;BME280;64024;55.820;37.574;2023-03-14T04:51:15;98011.63;;;14.98;45.28
75447;BME280;64024;55.820;37.574;2023-03-14T04:53:41;98006.00;;;15.00;45.11
75447;BME280;64024;55.820;37.574;2023-03-14T04:56:07;98014.03;;;15.00;44.89
75447;BME280;64024;55.820;37.574;2023-03-14T04:58:33;98012.16;;;15.00;44.95
75447;BME280;64024;55.820;37.574;2023-03-14T05:01:04;97996.91;;;15.01;45.30
75447;BME280;64024;55.820;37.574;2023-03-14T05:03:30;97985.16;;;15.02;44.91
75447;BME280;64024;55.820;37.574;2023-03-14T05:05:56;97981.41;;;15.03;45.05
75447;BME280;64024;55.820;37.574;2023-03-14T05:08:24;97987.53;;;15.03;45.37
75447;BME280;64024;55.820;37.574;2023-03-14T05:10:54;97972.28;;;15.04;45.11
75447;BME280;64024;55.820;37.574;2023-03-14T05:13:21;97983.53;;;15.06;45.31
75447;BME280;64024;55.820;37.574;2023-03-14T05:15:47;97953.03;;;15.07;45.27
75447;BME280;64024;55.820;37.574;2023-03-14T05:18:13;97973.34;;;15.08;44.96
75447;BME280;64024;55.820;37.574;2023-03-14T05:20:38;97985.66;;;15.09;45.33
75447;BME280;64024;55.820;37.574;2023-03-14T05:23:05;97957.84;;;15.10;44.93
75447;BME280;64024;55.820;37.574;2023-03-14T05:25:30;97970.16;;;15.11;45.24
75447;BME280;64024;55.820;37.574;2023-03-14T05:27:56;97984.34;;;15.11;44.82
75447;BME280;64024;55.820;37.574;2023-03-14T05:30:22;97974.16;;;15.13;45.72
75447;BME280;64024;55.820;37.574;2023-03-14T05:32:49;97987.28;;;15.15;45.58
75447;BME280;64024;55.820;37.574;2023-03-14T05:35:14;98003.84;;;15.17;45.59
75447;BME280;64024;55.820;37.574;2023-03-14T05:37:40;97977.91;;;15.17;45.40
75447;BME280;64024;55.820;37.574;2023-03-14T05:40:07;97995.56;;;15.19;45.75
75447;BME280;64024;55.820;37.574;2023-03-14T05:42:34;97950.59;;;15.21;45.67
75447;BME280;64024;55.820;37.574;2023-03-14T05:45:00;97983.50;;;15.21;45.53
75447;BME280;64024;55.820;37.574;2023-03-14T05:47:26;97982.19;;;15.24;45.52
75447;BME280;64024;55.820;37.574;2023-03-14T05:49:52;97980.03;;;15.26;45.88
75447;BME280;64024;55.820;37.574;2023-03-14T05:52:18;98001.44;;;15.26;45.62
75447;BME280;64024;55.820;37.574;2023-03-14T05:54:44;97982.47;;;15.27;45.56
75447;BME280;64024;55.820;37.574;2023-03-14T05:57:11;98004.66;;;15.28;45.50
75447;BME280;64024;55.820;37.574;2023-03-14T05:59:37;97978.69;;;15.28;46.03
75447;BME280;64024;55.820;37.574;2023-03-14T06:02:03;98002.50;;;15.30;45.46
75447;BME280;64024;55.820;37.574;2023-03-14T06:04:29;97981.66;;;15.32;45.79
75447;BME280;64024;55.820;37.574;2023-03-14T06:06:55;97985.91;;;15.33;45.52
75447;BME280;64024;55.820;37.574;2023-03-14T06:09:22;97991.81;;;15.35;45.58
75447;BME280;64024;55.820;37.574;2023-03-14T06:11:49;97974.69;;;15.36;45.71
75447;BME280;64024;55.820;37.574;2023-03-14T06:14:15;97961.00;;;15.37;45.48
75447;BME280;64024;55.820;37.574;2023-03-14T06:16:40;97973.06;;;15.40;45.64
75447;BME280;64024;55.820;37.574;2023-03-14T06:19:06;97970.13;;;15.41;45.86
75447;BME280;64024;55.820;37.574;2023-03-14T06:21:33;97972.53;;;15.43;45.61
75447;BME280;64024;55.820;37.574;2023-03-14T06:23:59;97950.84;;;15.45;45.54
75447;BME280;64024;55.820;37.574;2023-03-14T06:26:25;97975.72;;;15.45;45.74
75447;BME280;64024;55.820;37.574;2023-03-14T06:28:50;97957.53;;;15.47;45.60
75447;BME280;64024;55.820;37.574;2023-03-14T06:31:17;97974.91;;;15.50;45.97
75447;BME280;64024;55.820;37.574;2023-03-14T06:33:42;97977.34;;;15.51;45.70
75447;BME280;64024;55.820;37.574;2023-03-14T06:36:09;97972.50;;;15.53;45.66
75447;BME280;64024;55.820;37.574;2023-03-14T06:38:34;97968.50;;;15.56;45.76
75447;BME280;64024;55.820;37.574;2023-03-14T06:41:08;97974.13;;;15.59;45.82
75447;BME280;64024;55.820;37.574;2023-03-14T06:43:34;97969.56;;;15.60;45.61
75447;BME280;64024;55.820;37.574;2023-03-14T06:45:59;97970.06;;;15.62;45.57
75447;BME280;64024;55.820;37.574;2023-03-14T06:48:25;97968.78;;;15.64;45.43
75447;BME280;64024;55.820;37.574;2023-03-14T06:50:52;97951.63;;;15.65;45.54
75447;BME280;64024;55.820;37.574;2023-03-14T06:53:18;97968.50;;;15.66;45.75
75447;BME280;64024;55.820;37.574;2023-03-14T06:55:44;97958.03;;;15.70;45.33
75447;BME280;64024;55.820;37.574;2023-03-14T06:58:11;97965.00;;;15.71;45.66
75447;BME280;64024;55.820;37.574;2023-03-14T07:00:38;97951.84;;;15.74;45.50
75447;BME280;64024;55.820;37.574;2023-03-14T07:03:05;97967.66;;;15.76;45.45
75447;BME280;64024;55.820;37.574;2023-03-14T07:05:31;97970.06;;;15.77;45.54
75447;BME280;64024;55.820;37.574;2023-03-14T07:07:57;97962.28;;;15.81;45.55
75447;BME280;64024;55.820;37.574;2023-03-14T07:10:23;97975.13;;;15.84;45.52
75447;BME280;64024;55.820;37.574;2023-03-14T07:12:49;97974.88;;;15.85;45.42
75447;BME280;64024;55.820;37.574;2023-03-14T07:15:16;97975.13;;;15.89;45.39
75447;BME280;64024;55.820;37.574;2023-03-14T07:17:42;97979.66;;;15.94;45.33
75447;BME280;64024;55.820;37.574;2023-03-14T07:20:09;97980.97;;;15.96;45.52
75447;BME280;64024;55.820;37.574;2023-03-14T07:22:35;97977.75;;;15.99;45.50
75447;BME280;64024;55.820;37.574;2023-03-14T07:25:01;97994.09;;;16.03;45.49
75447;BME280;64024;55.820;37.574;2023-03-14T07:27:27;97991.66;;;16.06;45.46
75447;BME280;64024;55.820;37.574;2023-03-14T07:29:53;97983.88;;;16.10;45.28
75447;BME280;64024;55.820;37.574;2023-03-14T07:32:19;97988.69;;;16.13;45.19
75447;BME280;64024;55.820;37.574;2023-03-14T07:34:44;97986.25;;;16.16;45.23
75447;BME280;64024;55.820;37.574;2023-03-14T07:37:10;97986.81;;;16.19;45.24
75447;BME280;64024;55.820;37.574;2023-03-14T07:39:36;97982.50;;;16.23;45.01
75447;BME280;64024;55.820;37.574;2023-03-14T07:42:03;97984.63;;;16.26;44.96
75447;BME280;64024;55.820;37.574;2023-03-14T07:44:28;97981.38;;;16.29;45.05
75447;BME280;64024;55.820;37.574;2023-03-14T07:46:55;97980.03;;;16.31;44.85
75447;BME280;64024;55.820;37.574;2023-03-14T07:49:21;97975.97;;;16.34;44.95
75447;BME280;64024;55.820;37.574;2023-03-14T07:51:48;97976.25;;;16.37;44.98
75447;BME280;64024;55.820;37.574;2023-03-14T07:54:14;97974.91;;;16.40;44.66
75447;BME280;64024;55.820;37.574;2023-03-14T07:56:40;97973.56;;;16.43;44.94
75447;BME280;64024;55.820;37.574;2023-03-14T07:59:07;97950.72;;;16.45;44.83
75447;BME280;64024;55.820;37.574;2023-03-14T08:01:33;97953.66;;;16.49;44.85
75447;BME280;64024;55.820;37.574;2023-03-14T08:03:59;97971.09;;;16.51;44.44
75447;BME280;64024;55.820;37.574;2023-03-14T08:06:24;97974.00;;;16.55;44.71
75447;BME280;64024;55.820;37.574;2023-03-14T08:08:51;97978.81;;;16.58;44.58
75447;BME280;64024;55.820;37.574;2023-03-14T08:11:17;97984.41;;;16.61;44.41
75447;BME280;64024;55.820;37.574;2023-03-14T08:13:44;97981.19;;;16.64;44.59
75447;BME280;64024;55.820;37.574;2023-03-14T08:16:16;97984.91;;;16.69;44.47
75447;BME280;64024;55.820;37.574;2023-03-14T08:18:43;97988.09;;;16.71;44.51
75447;BME280;64024;55.820;37.574;2023-03-14T08:21:09;97983.31;;;16.73;44.24
75447;BME280;64024;55.820;37.574;2023-03-14T08:23:35;97985.44;;;16.76;44.69
75447;BME280;64024;55.820;37.574;2023-03-14T08:26:01;97985.16;;;16.77;44.39
75447;BME280;64024;55.820;37.574;2023-03-14T08:28:27;98004.19;;;16.81;44.32
75447;BME280;64024;55.820;37.574;2023-03-14T08:31:00;98004.69;;;16.83;44.24
75447;BME280;64024;55.820;37.574;2023-03-14T08:33:26;97996.28;;;16.95;44.04
75447;BME280;64024;55.820;37.574;2023-03-14T08:35:53;97992.03;;;16.94;44.01
75447;BME280;64024;55.820;37.574;2023-03-14T08:38:19;97980.69;;;17.02;43.72
75447;BME280;64024;55.820;37.574;2023-03-14T08:40:45;97995.47;;;16.99;43.95
75447;BME280;64024;55.820;37.574;2023-03-14T08:43:11;97990.38;;;16.98;43.80
75447;BME280;64024;55.820;37.574;2023-03-14T08:45:37;97991.19;;;16.98;43.82
75447;BME280;64024;55.820;37.574;2023-03-14T08:48:03;97991.19;;;16.98;43.71
75447;BME280;64024;55.820;37.574;2023-03-14T08:50:30;97982.03;;;16.99;43.72
75447;BME280;64024;55.820;37.574;2023-03-14T08:52:56;97970.22;;;17.00;44.04
75447;BME280;64024;55.820;37.574;2023-03-14T08:55:26;97972.34;;;17.03;43.67
75447;BME280;64024;55.820;37.574;2023-03-14T08:57:52;97969.28;;;17.15;43.77
75447;BME280;64024;55.820;37.574;2023-03-14T09:00:20;97953.97;;;17.15;43.76
75447;BME280;64024;55.820;37.574;2023-03-14T09:02:46;97965.25;;;17.18;43.91
75447;BME280;64024;55.820;37.574;2023-03-14T09:05:13;97961.19;;;17.20;43.89
75447;BME280;64024;55.820;37.574;2023-03-14T09:07:39;97967.59;;;17.24;43.86
75447;BME280;64024;55.820;37.574;2023-03-14T09:10:07;97962.47;;;17.28;43.87
75447;BME280;64024;55.820;37.574;2023-03-14T09:12:33;97953.50;;;17.37;43.77
75447;BME280;64024;55.820;37.574;2023-03-14T09:14:59;97951.13;;;17.36;43.64
75447;BME280;64024;55.820;37.574;2023-03-14T09:17:26;97950.31;;;17.35;43.56
75447;BME280;64024;55.820;37.574;2023-03-14T09:19:51;97957.03;;;17.38;43.56
75447;BME280;64024;55.820;37.574;2023-03-14T09:22:17;97959.41;;;17.39;43.72
75447;BME280;64024;55.820;37.574;2023-03-14T09:24:43;97962.59;;;17.42;43.27
75447;BME280;64024;55.820;37.574;2023-03-14T09:27:09;97968.22;;;17.45;43.66
75447;BME280;64024;55.820;37.574;2023-03-14T09:29:35;97966.06;;;17.47;43.74
75447;BME280;64024;55.820;37.574;2023-03-14T09:32:01;97970.88;;;17.50;43.71
75447;BME280;64024;55.820;37.574;2023-03-14T09:34:27;97980.75;;;17.55;43.71
75447;BME280;64024;55.820;37.574;2023-03-14T09:36:53;97977.78;;;17.56;43.57
75447;BME280;64024;55.820;37.574;2023-03-14T09:39:19;97973.72;;;17.59;43.71
75447;BME280;64024;55.820;37.574;2023-03-14T09:41:50;97981.19;;;17.62;43.75
75447;BME280;64024;55.820;37.574;2023-03-14T09:46:46;97980.34;;;17.67;44.10
75447;BME280;64024;55.820;37.574;2023-03-14T09:49:24;97977.09;;;17.70;44.12
75447;BME280;64024;55.820;37.574;2023-03-14T09:51:53;97974.94;;;17.72;44.09
75447;BME280;64024;55.820;37.574;2023-03-14T09:55:06;97988.28;;;17.82;44.12
75447;BME280;64024;55.820;37.574;2023-03-14T09:57:08;97986.69;;;17.81;43.79
75447;BME280;64024;55.820;37.574;2023-03-14T09:59:37;97964.66;;;17.79;43.92
75447;BME280;64024;55.820;37.574;2023-03-14T10:02:24;97957.13;;;17.81;43.99
75447;BME280;64024;55.820;37.574;2023-03-14T10:04:52;97984.00;;;17.81;43.87
75447;BME280;64024;55.820;37.574;2023-03-14T10:07:25;97971.34;;;17.81;43.74
75447;BME280;64024;55.820;37.574;2023-03-14T10:09:52;97972.94;;;17.82;43.70
75447;BME280;64024;55.820;37.574;2023-03-14T10:12:19;97954.94;;;17.83;43.85
75447;BME280;64024;55.820;37.574;2023-03-14T10:14:52;97960.53;;;17.86;43.87
75447;BME280;64024;55.820;37.574;2023-03-14T10:17:20;97951.13;;;17.89;43.63
75447;BME280;64024;55.820;37.574;2023-03-14T10:19:56;97950.03;;;17.90;43.55
75447;BME280;64024;55.820;37.574;2023-03-14T10:22:34;97960.50;;;17.92;43.62
75447;BME280;64024;55.820;37.574;2023-03-14T10:25:04;97959.41;;;17.93;43.37
75447;BME280;64024;55.820;37.574;2023-03-14T10:27:32;97965.59;;;17.93;43.49
75447;BME280;64024;55.820;37.574;2023-03-14T10:30:01;97972.56;;;17.94;43.33
75447;BME280;64024;55.820;37.574;2023-03-14T10:32:40;97966.38;;;17.94;43.23
75447;BME280;64024;55.820;37.574;2023-03-14T10:38:13;97965.81;;;17.97;43.11
75447;BME280;64024;55.820;37.574;2023-03-14T10:40:42;97955.34;;;17.95;43.28
75447;BME280;64024;55.820;37.574;2023-03-14T10:43:18;97939.50;;;17.94;43.42
75447;BME280;64024;55.820;37.574;2023-03-14T10:45:56;97929.28;;;17.96;43.43
75447;BME280;64024;55.820;37.574;2023-03-14T10:56:06;97951.22;;;18.03;43.39
75447;BME280;64024;55.820;37.574;2023-03-14T10:58:44;97941.25;;;18.03;43.47
75447;BME280;64024;55.820;37.574;2023-03-14T11:07:10;97904.63;;;18.07;43.42
75447;BME280;64024;55.820;37.574;2023-03-14T11:12:50;97908.06;;;18.13;43.24
75447;BME280;64024;55.820;37.574;2023-03-14T11:18:27;97915.84;;;18.14;43.10
75447;BME280;64024;55.820;37.574;2023-03-14T11:23:46;97923.91;;;18.14;42.96
75447;BME280;64024;55.820;37.574;2023-03-14T11:29:29;97926.53;;;18.20;43.28
75447;BME280;64024;55.820;37.574;2023-03-14T11:32:02;97926.53;;;18.20;43.49
75447;BME280;64024;55.820;37.574;2023-03-14T11:34:41;97926.25;;;18.21;44.03
75447;BME280;64024;55.820;37.574;2023-03-14T11:37:25;97931.63;;;18.21;44.51
75447;BME280;64024;55.820;37.574;2023-03-14T11:40:20;97932.44;;;18.22;44.86
75447;BME280;64024;55.820;37.574;2023-03-14T11:43:00;97937.81;;;18.22;44.73
75447;BME280;64024;55.820;37.574;2023-03-14T11:45:32;97929.75;;;18.22;45.00
75447;BME280;64024;55.820;37.574;2023-03-14T11:50:46;97931.34;;;18.23;45.38
75447;BME280;64024;55.820;37.574;2023-03-14T11:56:27;97935.63;;;18.24;45.45
75447;BME280;64024;55.820;37.574;2023-03-14T11:59:05;97936.72;;;18.23;45.43
75447;BME280;64024;55.820;37.574;2023-03-14T12:01:45;97942.09;;;18.23;45.22
75447;BME280;64024;55.820;37.574;2023-03-14T12:04:30;97943.97;;;18.22;45.10
75447;BME280;64024;55.820;37.574;2023-03-14T12:07:01;97955.84;;;18.21;45.07
75447;BME280;64024;55.820;37.574;2023-03-14T12:09:29;97957.72;;;18.21;44.94
75447;BME280;64024;55.820;37.574;2023-03-14T12:12:01;97950.94;;;18.23;45.13
75447;BME280;64024;55.820;37.574;2023-03-14T12:14:35;97970.56;;;18.24;44.90
75447;BME280;64024;55.820;37.574;2023-03-14T12:19:39;97954.97;;;18.26;44.80
75447;BME280;64024;55.820;37.574;2023-03-14T12:22:08;97955.75;;;18.26;44.78
75447;BME280;64024;55.820;37.574;2023-03-14T12:24:45;97955.47;;;18.28;44.43
75447;BME280;64024;55.820;37.574;2023-03-14T12:27:44;97966.44;;;18.31;44.38
75447;BME280;64024;55.820;37.574;2023-03-14T12:30:18;97937.97;;;18.30;44.21
75447;BME280;64024;55.820;37.574;2023-03-14T12:35:41;97978.00;;;18.32;44.27
75447;BME280;64024;55.820;37.574;2023-03-14T12:38:48;97965.34;;;18.32;44.27
75447;BME280;64024;55.820;37.574;2023-03-14T12:41:25;97974.22;;;18.33;43.88
75447;BME280;64024;55.820;37.574;2023-03-14T12:43:52;97984.47;;;18.31;43.88
75447;BME280;64024;55.820;37.574;2023-03-14T12:48:49;97973.22;;;18.29;43.86
75447;BME280;64024;55.820;37.574;2023-03-14T12:51:36;97971.03;;;18.31;43.63
75447;BME280;64024;55.820;37.574;2023-03-14T12:59:36;97965.16;;;18.29;43.44
75447;BME280;64024;55.820;37.574;2023-03-14T13:04:42;97964.13;;;18.25;43.48
75447;BME280;64024;55.820;37.574;2023-03-14T13:10:04;97968.41;;;18.26;43.66
75447;BME280;64024;55.820;37.574;2023-03-14T13:12:47;97965.72;;;18.26;43.39
75447;BME280;64024;55.820;37.574;2023-03-14T13:15:29;97967.31;;;18.27;43.38
75447;BME280;64024;55.820;37.574;2023-03-14T13:18:03;97954.97;;;18.26;43.34
75447;BME280;64024;55.820;37.574;2023-03-14T13:20:38;97963.81;;;18.26;43.47
75447;BME280;64024;55.820;37.574;2023-03-14T13:23:20;97946.91;;;18.26;43.29
75447;BME280;64024;55.820;37.574;2023-03-14T13:25:46;97939.09;;;18.24;43.36
75447;BME280;64024;55.820;37.574;2023-03-14T13:28:14;97952.84;;;18.23;43.24
75447;BME280;64024;55.820;37.574;2023-03-14T13:30:43;97945.88;;;18.22;43.09
75447;BME280;64024;55.820;37.574;2023-03-14T13:33:19;97951.53;;;18.20;43.13
75447;BME280;64024;55.820;37.574;2023-03-14T13:38:24;97958.56;;;18.16;43.12
75447;BME280;64024;55.820;37.574;2023-03-14T13:40:52;97959.66;;;18.15;43.16
75447;BME280;64024;55.820;37.574;2023-03-14T13:43:41;97964.25;;;18.14;43.09
75447;BME280;64024;55.820;37.574;2023-03-14T13:46:16;97968.81;;;18.14;43.15
75447;BME280;64024;55.820;37.574;2023-03-14T13:48:52;97975.56;;;18.11;43.26
75447;BME280;64024;55.820;37.574;2023-03-14T13:51:20;97966.22;;;18.09;43.06
75447;BME280;64024;55.820;37.574;2023-03-14T13:53:48;97972.84;;;18.17;43.19
75447;BME280;64024;55.820;37.574;2023-03-14T13:56:16;97977.47;;;18.11;42.91
75447;BME280;64024;55.820;37.574;2023-03-14T13:58:42;97982.59;;;18.07;43.15
75447;BME280;64024;55.820;37.574;2023-03-14T14:03:39;97973.00;;;18.01;43.25
75447;BME280;64024;55.820;37.574;2023-03-14T14:06:16;97975.69;;;18.01;43.36